sensor_id;sensor_type;location;lat;lon;timestamp;P1;durP1;ratioP1;P2;durP2;ratioP2
46561;SDS011;32289;42.688;23.330;2022-08-23T00:02:57;20.35;;;10.63;;
46561;SDS011;32289;42.688;23.330;2022-08-23T00:06:38;19.75;;;10.50;;
46561;SDS011;32289;42.688;23.330;2022-08-23T00:10:20;27.17;;;12.00;;
46561;SDS011;32289;42.688;23.330;2022-08-23T00:14:04;28.48;;;12.27;;
46561;SDS011;32289;42.688;23.330;2022-08-23T00:17:49;31.63;;;12.52;;
46561;SDS011;32289;42.688;23.330;2022-08-23T00:21:30;27.08;;;13.10;;
46561;SDS011;32289;42.688;23.330;2022-08-23T00:25:11;22.35;;;12.55;;
46561;SDS011;32289;42.688;23.330;2022-08-23T00:28:54;20.00;;;11.65;;
46561;SDS011;32289;42.688;23.330;2022-08-23T00:32:35;24.45;;;13.18;;
46561;SDS011;32289;42.688;23.330;2022-08-23T00:36:18;26.70;;;12.10;;
46561;SDS011;32289;42.688;23.330;2022-08-23T00:39:59;29.48;;;14.27;;
46561;SDS011;32289;42.688;23.330;2022-08-23T00:43:40;28.60;;;14.88;;
46561;SDS011;32289;42.688;23.330;2022-08-23T00:47:40;27.42;;;13.07;;
46561;SDS011;32289;42.688;23.330;2022-08-23T00:51:27;25.10;;;13.75;;
46561;SDS011;32289;42.688;23.330;2022-08-23T00:55:14;32.10;;;15.40;;
46561;SDS011;32289;42.688;23.330;2022-08-23T00:58:57;27.52;;;14.63;;
46561;SDS011;32289;42.688;23.330;2022-08-23T01:02:38;30.17;;;15.98;;
46561;SDS011;32289;42.688;23.330;2022-08-23T01:06:26;28.42;;;14.27;;
46561;SDS011;32289;42.688;23.330;2022-08-23T01:10:18;32.60;;;15.43;;
46561;SDS011;32289;42.688;23.330;2022-08-23T01:14:07;32.30;;;15.02;;
46561;SDS011;32289;42.688;23.330;2022-08-23T01:17:57;34.83;;;16.10;;
46561;SDS011;32289;42.688;23.330;2022-08-23T01:21:58;33.70;;;16.42;;
46561;SDS011;32289;42.688;23.330;2022-08-23T01:25:46;36.33;;;18.10;;
46561;SDS011;32289;42.688;23.330;2022-08-23T01:29:27;32.97;;;17.67;;
46561;SDS011;32289;42.688;23.330;2022-08-23T01:33:08;45.50;;;18.73;;
46561;SDS011;32289;42.688;23.330;2022-08-23T01:36:49;34.47;;;16.75;;
46561;SDS011;32289;42.688;23.330;2022-08-23T01:40:30;29.13;;;15.98;;
46561;SDS011;32289;42.688;23.330;2022-08-23T01:44:11;38.35;;;15.00;;
46561;SDS011;32289;42.688;23.330;2022-08-23T01:47:52;29.38;;;13.60;;
46561;SDS011;32289;42.688;23.330;2022-08-23T01:51:33;23.83;;;13.63;;
46561;SDS011;32289;42.688;23.330;2022-08-23T01:55:14;20.63;;;13.30;;
46561;SDS011;32289;42.688;23.330;2022-08-23T01:58:56;20.75;;;12.27;;
46561;SDS011;32289;42.688;23.330;2022-08-23T02:02:36;25.67;;;14.00;;
46561;SDS011;32289;42.688;23.330;2022-08-23T02:06:17;24.48;;;13.48;;
46561;SDS011;32289;42.688;23.330;2022-08-23T02:10:00;29.88;;;14.00;;
46561;SDS011;32289;42.688;23.330;2022-08-23T02:13:41;25.20;;;13.02;;
46561;SDS011;32289;42.688;23.330;2022-08-23T02:17:23;26.20;;;13.73;;
46561;SDS011;32289;42.688;23.330;2022-08-23T02:21:04;25.98;;;13.43;;
46561;SDS011;32289;42.688;23.330;2022-08-23T02:24:45;30.77;;;14.27;;
46561;SDS011;32289;42.688;23.330;2022-08-23T02:28:26;30.95;;;14.77;;
46561;SDS011;32289;42.688;23.330;2022-08-23T02:32:07;25.88;;;13.35;;
46561;SDS011;32289;42.688;23.330;2022-08-23T02:35:49;26.52;;;13.00;;
46561;SDS011;32289;42.688;23.330;2022-08-23T02:39:30;29.90;;;14.57;;
46561;SDS011;32289;42.688;23.330;2022-08-23T02:43:11;26.05;;;13.48;;
46561;SDS011;32289;42.688;23.330;2022-08-23T02:46:51;23.95;;;13.65;;
46561;SDS011;32289;42.688;23.330;2022-08-23T02:50:33;26.70;;;14.40;;
46561;SDS011;32289;42.688;23.330;2022-08-23T02:54:14;25.30;;;14.35;;
46561;SDS011;32289;42.688;23.330;2022-08-23T02:57:55;23.25;;;13.15;;
46561;SDS011;32289;42.688;23.330;2022-08-23T03:01:37;21.05;;;12.35;;
46561;SDS011;32289;42.688;23.330;2022-08-23T03:05:18;20.80;;;12.45;;
46561;SDS011;32289;42.688;23.330;2022-08-23T03:08:59;15.98;;;10.27;;
46561;SDS011;32289;42.688;23.330;2022-08-23T03:12:40;15.45;;;10.40;;
46561;SDS011;32289;42.688;23.330;2022-08-23T03:16:22;16.08;;;10.40;;
46561;SDS011;32289;42.688;23.330;2022-08-23T03:20:03;14.73;;;9.98;;
46561;SDS011;32289;42.688;23.330;2022-08-23T03:23:45;13.02;;;8.65;;
46561;SDS011;32289;42.688;23.330;2022-08-23T03:27:27;15.00;;;10.20;;
46561;SDS011;32289;42.688;23.330;2022-08-23T03:31:10;19.20;;;9.82;;
46561;SDS011;32289;42.688;23.330;2022-08-23T03:34:52;13.45;;;9.57;;
46561;SDS011;32289;42.688;23.330;2022-08-23T03:38:33;19.92;;;10.82;;
46561;SDS011;32289;42.688;23.330;2022-08-23T03:42:15;21.27;;;11.63;;
46561;SDS011;32289;42.688;23.330;2022-08-23T03:45:56;19.40;;;11.07;;
46561;SDS011;32289;42.688;23.330;2022-08-23T03:49:37;17.63;;;11.48;;
46561;SDS011;32289;42.688;23.330;2022-08-23T03:53:17;16.42;;;9.82;;
46561;SDS011;32289;42.688;23.330;2022-08-23T03:56:59;16.58;;;9.20;;
46561;SDS011;32289;42.688;23.330;2022-08-23T04:00:42;12.98;;;8.50;;
46561;SDS011;32289;42.688;23.330;2022-08-23T04:04:23;12.13;;;7.95;;
46561;SDS011;32289;42.688;23.330;2022-08-23T04:08:08;10.07;;;6.60;;
46561;SDS011;32289;42.688;23.330;2022-08-23T04:11:49;14.30;;;7.60;;
46561;SDS011;32289;42.688;23.330;2022-08-23T04:15:31;11.93;;;7.20;;
46561;SDS011;32289;42.688;23.330;2022-08-23T04:19:13;14.05;;;7.68;;
46561;SDS011;32289;42.688;23.330;2022-08-23T04:22:55;11.55;;;7.38;;
46561;SDS011;32289;42.688;23.330;2022-08-23T04:26:36;13.07;;;7.13;;
46561;SDS011;32289;42.688;23.330;2022-08-23T04:30:17;11.48;;;6.75;;
46561;SDS011;32289;42.688;23.330;2022-08-23T04:33:59;15.38;;;8.90;;
46561;SDS011;32289;42.688;23.330;2022-08-23T04:37:40;14.43;;;8.07;;
46561;SDS011;32289;42.688;23.330;2022-08-23T04:41:21;20.73;;;13.30;;
46561;SDS011;32289;42.688;23.330;2022-08-23T04:45:20;23.98;;;9.75;;
46561;SDS011;32289;42.688;23.330;2022-08-23T04:49:01;14.23;;;8.52;;
46561;SDS011;32289;42.688;23.330;2022-08-23T04:52:42;17.25;;;7.32;;
46561;SDS011;32289;42.688;23.330;2022-08-23T04:56:24;14.80;;;7.20;;
46561;SDS011;32289;42.688;23.330;2022-08-23T05:00:04;13.20;;;7.05;;
46561;SDS011;32289;42.688;23.330;2022-08-23T05:03:46;14.93;;;7.55;;
46561;SDS011;32289;42.688;23.330;2022-08-23T05:07:26;12.55;;;7.25;;
46561;SDS011;32289;42.688;23.330;2022-08-23T05:11:08;12.32;;;7.78;;
46561;SDS011;32289;42.688;23.330;2022-08-23T05:14:49;9.95;;;6.13;;
46561;SDS011;32289;42.688;23.330;2022-08-23T05:18:31;11.23;;;5.63;;
46561;SDS011;32289;42.688;23.330;2022-08-23T05:22:12;15.90;;;6.97;;
46561;SDS011;32289;42.688;23.330;2022-08-23T05:25:53;11.80;;;6.72;;
46561;SDS011;32289;42.688;23.330;2022-08-23T05:29:34;11.63;;;6.07;;
46561;SDS011;32289;42.688;23.330;2022-08-23T05:33:15;11.57;;;6.70;;
46561;SDS011;32289;42.688;23.330;2022-08-23T05:36:55;11.65;;;7.32;;
46561;SDS011;32289;42.688;23.330;2022-08-23T05:40:36;10.80;;;6.70;;
46561;SDS011;32289;42.688;23.330;2022-08-23T05:44:17;17.20;;;7.45;;
46561;SDS011;32289;42.688;23.330;2022-08-23T05:47:58;17.00;;;7.80;;
46561;SDS011;32289;42.688;23.330;2022-08-23T05:51:38;14.48;;;8.25;;
46561;SDS011;32289;42.688;23.330;2022-08-23T05:55:21;12.52;;;7.63;;
46561;SDS011;32289;42.688;23.330;2022-08-23T05:59:03;20.65;;;8.50;;
46561;SDS011;32289;42.688;23.330;2022-08-23T06:02:46;17.88;;;10.52;;
46561;SDS011;32289;42.688;23.330;2022-08-23T06:06:28;14.57;;;9.48;;
46561;SDS011;32289;42.688;23.330;2022-08-23T06:10:09;14.00;;;8.23;;
46561;SDS011;32289;42.688;23.330;2022-08-23T06:13:51;11.30;;;6.95;;
46561;SDS011;32289;42.688;23.330;2022-08-23T06:17:33;11.30;;;7.53;;
46561;SDS011;32289;42.688;23.330;2022-08-23T06:21:14;15.95;;;6.97;;
46561;SDS011;32289;42.688;23.330;2022-08-23T06:24:55;12.52;;;7.22;;
46561;SDS011;32289;42.688;23.330;2022-08-23T06:28:36;12.63;;;8.18;;
46561;SDS011;32289;42.688;23.330;2022-08-23T06:32:17;15.07;;;6.80;;
46561;SDS011;32289;42.688;23.330;2022-08-23T06:36:02;10.18;;;5.75;;
46561;SDS011;32289;42.688;23.330;2022-08-23T06:39:45;13.55;;;7.13;;
46561;SDS011;32289;42.688;23.330;2022-08-23T06:43:26;12.00;;;6.70;;
46561;SDS011;32289;42.688;23.330;2022-08-23T06:47:07;11.07;;;4.53;;
46561;SDS011;32289;42.688;23.330;2022-08-23T06:50:48;9.55;;;5.07;;
46561;SDS011;32289;42.688;23.330;2022-08-23T06:54:30;10.73;;;5.80;;
46561;SDS011;32289;42.688;23.330;2022-08-23T06:58:12;10.27;;;5.70;;
46561;SDS011;32289;42.688;23.330;2022-08-23T07:01:56;13.40;;;8.15;;
46561;SDS011;32289;42.688;23.330;2022-08-23T07:05:38;19.40;;;8.35;;
46561;SDS011;32289;42.688;23.330;2022-08-23T07:09:19;16.20;;;8.23;;
46561;SDS011;32289;42.688;23.330;2022-08-23T07:13:01;14.98;;;9.57;;
46561;SDS011;32289;42.688;23.330;2022-08-23T07:16:43;12.45;;;7.57;;
46561;SDS011;32289;42.688;23.330;2022-08-23T07:20:28;9.15;;;5.95;;
46561;SDS011;32289;42.688;23.330;2022-08-23T07:24:09;11.00;;;7.95;;
46561;SDS011;32289;42.688;23.330;2022-08-23T07:27:50;10.32;;;7.97;;
46561;SDS011;32289;42.688;23.330;2022-08-23T07:31:33;10.68;;;6.35;;
46561;SDS011;32289;42.688;23.330;2022-08-23T07:35:18;10.88;;;8.05;;
46561;SDS011;32289;42.688;23.330;2022-08-23T07:38:58;14.48;;;8.90;;
46561;SDS011;32289;42.688;23.330;2022-08-23T07:42:40;12.98;;;8.35;;
46561;SDS011;32289;42.688;23.330;2022-08-23T07:46:20;14.75;;;10.50;;
46561;SDS011;32289;42.688;23.330;2022-08-23T07:50:01;21.98;;;13.75;;
46561;SDS011;32289;42.688;23.330;2022-08-23T07:53:42;15.32;;;10.48;;
46561;SDS011;32289;42.688;23.330;2022-08-23T07:57:25;19.48;;;12.07;;
46561;SDS011;32289;42.688;23.330;2022-08-23T08:01:15;13.45;;;9.48;;
46561;SDS011;32289;42.688;23.330;2022-08-23T08:04:57;11.40;;;8.10;;
46561;SDS011;32289;42.688;23.330;2022-08-23T08:08:39;18.83;;;10.45;;
46561;SDS011;32289;42.688;23.330;2022-08-23T08:12:20;18.27;;;10.73;;
46561;SDS011;32289;42.688;23.330;2022-08-23T08:16:01;17.45;;;10.98;;
46561;SDS011;32289;42.688;23.330;2022-08-23T08:19:43;17.08;;;10.93;;
46561;SDS011;32289;42.688;23.330;2022-08-23T08:23:24;19.35;;;13.20;;
46561;SDS011;32289;42.688;23.330;2022-08-23T08:27:05;18.75;;;11.98;;
46561;SDS011;32289;42.688;23.330;2022-08-23T08:30:46;17.15;;;12.27;;
46561;SDS011;32289;42.688;23.330;2022-08-23T08:34:28;16.05;;;12.23;;
46561;SDS011;32289;42.688;23.330;2022-08-23T08:38:09;20.58;;;12.43;;
46561;SDS011;32289;42.688;23.330;2022-08-23T08:46:09;18.85;;;12.20;;
46561;SDS011;32289;42.688;23.330;2022-08-23T08:53:39;17.13;;;11.80;;
46561;SDS011;32289;42.688;23.330;2022-08-23T08:57:25;14.95;;;11.15;;
46561;SDS011;32289;42.688;23.330;2022-08-23T09:01:06;16.50;;;11.38;;
46561;SDS011;32289;42.688;23.330;2022-08-23T09:04:47;17.10;;;11.65;;
46561;SDS011;32289;42.688;23.330;2022-08-23T09:20:31;18.13;;;11.90;;
46561;SDS011;32289;42.688;23.330;2022-08-23T09:24:13;15.57;;;10.98;;
46561;SDS011;32289;42.688;23.330;2022-08-23T09:27:54;14.23;;;10.77;;
46561;SDS011;32289;42.688;23.330;2022-08-23T09:31:42;17.15;;;10.82;;
46561;SDS011;32289;42.688;23.330;2022-08-23T09:35:24;15.25;;;12.00;;
46561;SDS011;32289;42.688;23.330;2022-08-23T09:39:07;21.20;;;12.93;;
46561;SDS011;32289;42.688;23.330;2022-08-23T09:43:05;18.70;;;11.43;;
46561;SDS011;32289;42.688;23.330;2022-08-23T09:46:46;14.32;;;10.85;;
46561;SDS011;32289;42.688;23.330;2022-08-23T09:50:29;16.00;;;12.30;;
46561;SDS011;32289;42.688;23.330;2022-08-23T09:54:24;14.88;;;12.07;;
46561;SDS011;32289;42.688;23.330;2022-08-23T09:58:29;17.08;;;13.77;;
46561;SDS011;32289;42.688;23.330;2022-08-23T10:02:33;16.17;;;10.55;;
46561;SDS011;32289;42.688;23.330;2022-08-23T10:06:27;15.90;;;11.88;;
46561;SDS011;32289;42.688;23.330;2022-08-23T10:10:17;14.32;;;10.00;;
46561;SDS011;32289;42.688;23.330;2022-08-23T10:14:17;13.55;;;10.35;;
46561;SDS011;32289;42.688;23.330;2022-08-23T10:18:03;15.05;;;9.85;;
46561;SDS011;32289;42.688;23.330;2022-08-23T10:22:09;13.63;;;9.38;;
46561;SDS011;32289;42.688;23.330;2022-08-23T10:25:57;11.40;;;8.52;;
46561;SDS011;32289;42.688;23.330;2022-08-23T10:29:40;9.27;;;7.45;;
46561;SDS011;32289;42.688;23.330;2022-08-23T10:45:42;9.52;;;7.78;;
46561;SDS011;32289;42.688;23.330;2022-08-23T10:49:26;10.02;;;7.32;;
46561;SDS011;32289;42.688;23.330;2022-08-23T10:53:09;9.80;;;7.60;;
46561;SDS011;32289;42.688;23.330;2022-08-23T10:56:53;10.93;;;7.57;;
46561;SDS011;32289;42.688;23.330;2022-08-23T11:00:36;12.48;;;8.30;;
46561;SDS011;32289;42.688;23.330;2022-08-23T11:04:20;9.70;;;7.70;;
46561;SDS011;32289;42.688;23.330;2022-08-23T11:08:34;13.13;;;9.55;;
46561;SDS011;32289;42.688;23.330;2022-08-23T11:12:24;10.80;;;7.80;;
46561;SDS011;32289;42.688;23.330;2022-08-23T11:16:14;14.05;;;7.47;;
46561;SDS011;32289;42.688;23.330;2022-08-23T11:20:05;11.77;;;9.15;;
46561;SDS011;32289;42.688;23.330;2022-08-23T11:23:50;12.40;;;7.78;;
46561;SDS011;32289;42.688;23.330;2022-08-23T11:31:26;11.13;;;8.82;;
46561;SDS011;32289;42.688;23.330;2022-08-23T11:39:12;12.02;;;8.32;;
46561;SDS011;32289;42.688;23.330;2022-08-23T11:42:53;13.65;;;7.50;;
46561;SDS011;32289;42.688;23.330;2022-08-23T11:50:36;10.23;;;7.82;;
46561;SDS011;32289;42.688;23.330;2022-08-23T11:58:22;9.77;;;7.75;;
46561;SDS011;32289;42.688;23.330;2022-08-23T12:06:42;10.75;;;6.63;;
46561;SDS011;32289;42.688;23.330;2022-08-23T12:18:11;13.82;;;7.82;;
46561;SDS011;32289;42.688;23.330;2022-08-23T12:21:54;12.75;;;7.40;;
46561;SDS011;32289;42.688;23.330;2022-08-23T12:25:36;11.13;;;7.75;;
46561;SDS011;32289;42.688;23.330;2022-08-23T12:33:26;5.15;;;4.22;;
46561;SDS011;32289;42.688;23.330;2022-08-23T12:37:15;7.25;;;4.25;;
46561;SDS011;32289;42.688;23.330;2022-08-23T12:41:19;8.73;;;3.97;;
46561;SDS011;32289;42.688;23.330;2022-08-23T12:45:05;7.38;;;4.03;;
46561;SDS011;32289;42.688;23.330;2022-08-23T12:48:58;4.47;;;3.70;;
46561;SDS011;32289;42.688;23.330;2022-08-23T12:52:39;9.13;;;4.38;;
46561;SDS011;32289;42.688;23.330;2022-08-23T12:56:22;7.80;;;4.22;;
46561;SDS011;32289;42.688;23.330;2022-08-23T13:04:29;7.40;;;4.78;;
46561;SDS011;32289;42.688;23.330;2022-08-23T13:08:16;9.50;;;6.05;;
46561;SDS011;32289;42.688;23.330;2022-08-23T13:12:03;8.13;;;5.18;;
46561;SDS011;32289;42.688;23.330;2022-08-23T13:19:30;7.95;;;5.18;;
46561;SDS011;32289;42.688;23.330;2022-08-23T13:23:11;6.28;;;4.38;;
46561;SDS011;32289;42.688;23.330;2022-08-23T13:27:09;9.25;;;4.90;;
46561;SDS011;32289;42.688;23.330;2022-08-23T13:31:00;10.43;;;5.07;;
46561;SDS011;32289;42.688;23.330;2022-08-23T13:34:47;11.70;;;6.28;;
46561;SDS011;32289;42.688;23.330;2022-08-23T13:38:31;6.88;;;4.65;;
46561;SDS011;32289;42.688;23.330;2022-08-23T13:42:12;11.75;;;5.45;;
46561;SDS011;32289;42.688;23.330;2022-08-23T13:45:55;8.05;;;5.45;;
46561;SDS011;32289;42.688;23.330;2022-08-23T13:49:37;7.75;;;5.22;;
46561;SDS011;32289;42.688;23.330;2022-08-23T13:53:18;9.45;;;4.90;;
46561;SDS011;32289;42.688;23.330;2022-08-23T13:57:00;11.15;;;6.68;;
46561;SDS011;32289;42.688;23.330;2022-08-23T14:00:51;9.13;;;6.28;;
46561;SDS011;32289;42.688;23.330;2022-08-23T14:04:32;7.97;;;5.72;;
46561;SDS011;32289;42.688;23.330;2022-08-23T14:08:14;9.85;;;7.20;;
46561;SDS011;32289;42.688;23.330;2022-08-23T14:11:56;11.50;;;6.63;;
46561;SDS011;32289;42.688;23.330;2022-08-23T14:15:43;10.48;;;7.20;;
46561;SDS011;32289;42.688;23.330;2022-08-23T14:19:24;14.75;;;8.25;;
46561;SDS011;32289;42.688;23.330;2022-08-23T14:23:05;13.88;;;7.05;;
46561;SDS011;32289;42.688;23.330;2022-08-23T14:26:46;17.52;;;8.18;;
46561;SDS011;32289;42.688;23.330;2022-08-23T14:30:28;18.55;;;8.90;;
46561;SDS011;32289;42.688;23.330;2022-08-23T14:34:11;14.55;;;7.78;;
46561;SDS011;32289;42.688;23.330;2022-08-23T14:37:52;15.52;;;10.05;;
46561;SDS011;32289;42.688;23.330;2022-08-23T14:41:34;15.75;;;8.50;;
46561;SDS011;32289;42.688;23.330;2022-08-23T14:45:15;15.13;;;7.90;;
46561;SDS011;32289;42.688;23.330;2022-08-23T14:48:57;13.25;;;7.05;;
46561;SDS011;32289;42.688;23.330;2022-08-23T14:52:38;12.38;;;6.30;;
46561;SDS011;32289;42.688;23.330;2022-08-23T14:56:22;10.65;;;6.75;;
46561;SDS011;32289;42.688;23.330;2022-08-23T15:00:04;10.40;;;5.95;;
46561;SDS011;32289;42.688;23.330;2022-08-23T15:03:46;12.15;;;5.75;;
46561;SDS011;32289;42.688;23.330;2022-08-23T15:07:28;9.80;;;5.63;;
46561;SDS011;32289;42.688;23.330;2022-08-23T15:11:09;8.20;;;5.95;;
46561;SDS011;32289;42.688;23.330;2022-08-23T15:14:51;10.90;;;5.55;;
46561;SDS011;32289;42.688;23.330;2022-08-23T15:18:33;14.10;;;8.50;;
46561;SDS011;32289;42.688;23.330;2022-08-23T15:22:14;15.70;;;7.63;;
46561;SDS011;32289;42.688;23.330;2022-08-23T15:25:55;21.70;;;10.23;;
46561;SDS011;32289;42.688;23.330;2022-08-23T15:29:37;21.48;;;12.57;;
46561;SDS011;32289;42.688;23.330;2022-08-23T15:33:18;15.68;;;9.48;;
46561;SDS011;32289;42.688;23.330;2022-08-23T15:36:59;11.82;;;6.80;;
46561;SDS011;32289;42.688;23.330;2022-08-23T15:40:40;16.08;;;8.75;;
46561;SDS011;32289;42.688;23.330;2022-08-23T15:44:21;10.70;;;7.72;;
46561;SDS011;32289;42.688;23.330;2022-08-23T15:48:01;17.38;;;7.88;;
46561;SDS011;32289;42.688;23.330;2022-08-23T15:51:51;21.30;;;11.13;;
46561;SDS011;32289;42.688;23.330;2022-08-23T15:55:31;14.38;;;8.02;;
46561;SDS011;32289;42.688;23.330;2022-08-23T15:59:14;17.77;;;7.97;;
46561;SDS011;32289;42.688;23.330;2022-08-23T16:02:57;15.98;;;7.82;;
46561;SDS011;32289;42.688;23.330;2022-08-23T16:06:38;11.88;;;6.95;;
46561;SDS011;32289;42.688;23.330;2022-08-23T16:10:19;17.65;;;9.25;;
46561;SDS011;32289;42.688;23.330;2022-08-23T16:14:01;11.63;;;7.47;;
46561;SDS011;32289;42.688;23.330;2022-08-23T16:17:42;10.32;;;6.38;;
46561;SDS011;32289;42.688;23.330;2022-08-23T16:21:23;17.80;;;8.93;;
46561;SDS011;32289;42.688;23.330;2022-08-23T16:25:06;14.65;;;7.40;;
46561;SDS011;32289;42.688;23.330;2022-08-23T16:28:48;18.45;;;7.38;;
46561;SDS011;32289;42.688;23.330;2022-08-23T16:32:30;13.65;;;7.88;;
46561;SDS011;32289;42.688;23.330;2022-08-23T16:36:11;14.93;;;8.02;;
46561;SDS011;32289;42.688;23.330;2022-08-23T16:39:51;20.40;;;9.40;;
46561;SDS011;32289;42.688;23.330;2022-08-23T16:43:32;19.25;;;10.23;;
46561;SDS011;32289;42.688;23.330;2022-08-23T16:47:13;15.18;;;8.20;;
46561;SDS011;32289;42.688;23.330;2022-08-23T16:50:54;12.70;;;8.15;;
46561;SDS011;32289;42.688;23.330;2022-08-23T16:54:36;12.70;;;7.47;;
46561;SDS011;32289;42.688;23.330;2022-08-23T16:58:17;14.95;;;7.97;;
46561;SDS011;32289;42.688;23.330;2022-08-23T17:01:59;14.23;;;8.88;;
46561;SDS011;32289;42.688;23.330;2022-08-23T17:05:41;14.07;;;9.15;;
46561;SDS011;32289;42.688;23.330;2022-08-23T17:09:23;16.67;;;8.32;;
46561;SDS011;32289;42.688;23.330;2022-08-23T17:13:06;12.95;;;8.95;;
46561;SDS011;32289;42.688;23.330;2022-08-23T17:16:47;13.10;;;8.43;;
46561;SDS011;32289;42.688;23.330;2022-08-23T17:20:29;13.70;;;8.38;;
46561;SDS011;32289;42.688;23.330;2022-08-23T17:24:11;19.98;;;8.80;;
46561;SDS011;32289;42.688;23.330;2022-08-23T17:27:52;14.35;;;9.73;;
46561;SDS011;32289;42.688;23.330;2022-08-23T17:31:34;14.93;;;7.90;;
46561;SDS011;32289;42.688;23.330;2022-08-23T17:35:18;16.15;;;9.15;;
46561;SDS011;32289;42.688;23.330;2022-08-23T17:39:01;13.77;;;8.48;;
46561;SDS011;32289;42.688;23.330;2022-08-23T17:42:47;12.73;;;8.07;;
46561;SDS011;32289;42.688;23.330;2022-08-23T17:46:28;10.57;;;7.03;;
46561;SDS011;32289;42.688;23.330;2022-08-23T17:50:09;14.43;;;7.15;;
46561;SDS011;32289;42.688;23.330;2022-08-23T17:53:50;13.65;;;7.03;;
46561;SDS011;32289;42.688;23.330;2022-08-23T17:57:31;9.95;;;6.00;;
46561;SDS011;32289;42.688;23.330;2022-08-23T18:01:13;12.13;;;6.32;;
46561;SDS011;32289;42.688;23.330;2022-08-23T18:04:53;9.15;;;6.25;;
46561;SDS011;32289;42.688;23.330;2022-08-23T18:08:34;12.15;;;6.05;;
46561;SDS011;32289;42.688;23.330;2022-08-23T18:12:15;12.73;;;6.75;;
46561;SDS011;32289;42.688;23.330;2022-08-23T18:15:55;12.73;;;7.53;;
46561;SDS011;32289;42.688;23.330;2022-08-23T18:19:36;14.70;;;7.30;;
46561;SDS011;32289;42.688;23.330;2022-08-23T18:23:17;10.63;;;6.50;;
46561;SDS011;32289;42.688;23.330;2022-08-23T18:26:58;10.82;;;6.80;;
46561;SDS011;32289;42.688;23.330;2022-08-23T18:30:57;11.57;;;6.88;;
46561;SDS011;32289;42.688;23.330;2022-08-23T18:34:42;14.70;;;8.30;;
46561;SDS011;32289;42.688;23.330;2022-08-23T18:38:23;23.65;;;9.80;;
46561;SDS011;32289;42.688;23.330;2022-08-23T18:42:03;15.23;;;9.02;;
46561;SDS011;32289;42.688;23.330;2022-08-23T18:45:45;12.02;;;8.13;;
46561;SDS011;32289;42.688;23.330;2022-08-23T18:49:28;12.00;;;7.20;;
46561;SDS011;32289;42.688;23.330;2022-08-23T18:53:12;19.27;;;11.57;;
46561;SDS011;32289;42.688;23.330;2022-08-23T18:56:53;17.40;;;9.25;;
46561;SDS011;32289;42.688;23.330;2022-08-23T19:00:34;14.60;;;8.10;;
46561;SDS011;32289;42.688;23.330;2022-08-23T19:04:16;14.38;;;8.18;;
46561;SDS011;32289;42.688;23.330;2022-08-23T19:07:57;17.77;;;10.77;;
46561;SDS011;32289;42.688;23.330;2022-08-23T19:11:38;10.45;;;7.13;;
46561;SDS011;32289;42.688;23.330;2022-08-23T19:15:21;13.90;;;6.95;;
46561;SDS011;32289;42.688;23.330;2022-08-23T19:19:04;16.52;;;9.50;;
46561;SDS011;32289;42.688;23.330;2022-08-23T19:22:45;20.48;;;8.20;;
46561;SDS011;32289;42.688;23.330;2022-08-23T19:26:28;12.52;;;8.23;;
46561;SDS011;32289;42.688;23.330;2022-08-23T19:30:12;18.15;;;8.35;;
46561;SDS011;32289;42.688;23.330;2022-08-23T19:33:55;16.33;;;8.70;;
46561;SDS011;32289;42.688;23.330;2022-08-23T19:37:36;19.30;;;9.88;;
46561;SDS011;32289;42.688;23.330;2022-08-23T19:41:17;11.80;;;8.02;;
46561;SDS011;32289;42.688;23.330;2022-08-23T19:44:58;18.35;;;9.13;;
46561;SDS011;32289;42.688;23.330;2022-08-23T19:48:38;13.93;;;8.45;;
46561;SDS011;32289;42.688;23.330;2022-08-23T19:52:19;14.35;;;8.00;;
46561;SDS011;32289;42.688;23.330;2022-08-23T19:56:01;15.35;;;8.48;;
46561;SDS011;32289;42.688;23.330;2022-08-23T19:59:42;21.30;;;11.95;;
46561;SDS011;32289;42.688;23.330;2022-08-23T20:03:23;14.43;;;7.85;;
46561;SDS011;32289;42.688;23.330;2022-08-23T20:07:04;12.63;;;7.95;;
46561;SDS011;32289;42.688;23.330;2022-08-23T20:10:45;18.75;;;8.38;;
46561;SDS011;32289;42.688;23.330;2022-08-23T20:14:26;18.95;;;8.10;;
46561;SDS011;32289;42.688;23.330;2022-08-23T20:18:10;14.23;;;7.78;;
46561;SDS011;32289;42.688;23.330;2022-08-23T20:21:50;17.23;;;8.43;;
46561;SDS011;32289;42.688;23.330;2022-08-23T20:25:51;16.90;;;9.02;;
46561;SDS011;32289;42.688;23.330;2022-08-23T20:29:33;15.95;;;7.53;;
46561;SDS011;32289;42.688;23.330;2022-08-23T20:33:14;11.23;;;7.65;;
46561;SDS011;32289;42.688;23.330;2022-08-23T20:36:55;17.75;;;8.57;;
46561;SDS011;32289;42.688;23.330;2022-08-23T20:40:36;12.55;;;8.48;;
46561;SDS011;32289;42.688;23.330;2022-08-23T20:44:17;16.20;;;10.10;;
46561;SDS011;32289;42.688;23.330;2022-08-23T20:47:58;18.70;;;9.68;;
46561;SDS011;32289;42.688;23.330;2022-08-23T20:51:39;15.88;;;9.65;;
46561;SDS011;32289;42.688;23.330;2022-08-23T20:55:20;21.15;;;13.48;;
46561;SDS011;32289;42.688;23.330;2022-08-23T20:59:00;15.68;;;9.10;;
46561;SDS011;32289;42.688;23.330;2022-08-23T21:02:42;16.98;;;8.35;;
46561;SDS011;32289;42.688;23.330;2022-08-23T21:06:24;21.52;;;11.55;;
46561;SDS011;32289;42.688;23.330;2022-08-23T21:10:09;19.95;;;9.32;;
46561;SDS011;32289;42.688;23.330;2022-08-23T21:13:50;18.30;;;9.38;;
46561;SDS011;32289;42.688;23.330;2022-08-23T21:17:30;14.15;;;8.63;;
46561;SDS011;32289;42.688;23.330;2022-08-23T21:21:11;18.95;;;8.98;;
46561;SDS011;32289;42.688;23.330;2022-08-23T21:24:52;15.07;;;7.55;;
46561;SDS011;32289;42.688;23.330;2022-08-23T21:28:33;10.27;;;7.00;;
46561;SDS011;32289;42.688;23.330;2022-08-23T21:32:15;11.50;;;7.45;;
46561;SDS011;32289;42.688;23.330;2022-08-23T21:35:55;12.75;;;8.10;;
46561;SDS011;32289;42.688;23.330;2022-08-23T21:39:36;18.38;;;8.27;;
46561;SDS011;32289;42.688;23.330;2022-08-23T21:43:17;13.65;;;7.63;;
46561;SDS011;32289;42.688;23.330;2022-08-23T21:46:58;13.98;;;7.88;;
46561;SDS011;32289;42.688;23.330;2022-08-23T21:50:39;17.77;;;9.27;;
46561;SDS011;32289;42.688;23.330;2022-08-23T21:54:19;15.10;;;7.50;;
46561;SDS011;32289;42.688;23.330;2022-08-23T21:58:00;21.50;;;9.10;;
46561;SDS011;32289;42.688;23.330;2022-08-23T22:01:41;12.88;;;7.35;;
46561;SDS011;32289;42.688;23.330;2022-08-23T22:05:23;20.48;;;9.60;;
46561;SDS011;32289;42.688;23.330;2022-08-23T22:09:05;17.20;;;9.23;;
46561;SDS011;32289;42.688;23.330;2022-08-23T22:12:47;15.95;;;8.85;;
46561;SDS011;32289;42.688;23.330;2022-08-23T22:16:28;15.95;;;8.88;;
46561;SDS011;32289;42.688;23.330;2022-08-23T22:20:09;14.98;;;8.55;;
46561;SDS011;32289;42.688;23.330;2022-08-23T22:23:52;14.38;;;8.32;;
46561;SDS011;32289;42.688;23.330;2022-08-23T22:27:33;16.67;;;8.43;;
46561;SDS011;32289;42.688;23.330;2022-08-23T22:31:13;12.70;;;7.75;;
46561;SDS011;32289;42.688;23.330;2022-08-23T22:34:54;12.48;;;8.15;;
46561;SDS011;32289;42.688;23.330;2022-08-23T22:38:37;13.95;;;7.88;;
46561;SDS011;32289;42.688;23.330;2022-08-23T22:42:18;12.55;;;6.65;;
46561;SDS011;32289;42.688;23.330;2022-08-23T22:46:00;12.35;;;6.78;;
46561;SDS011;32289;42.688;23.330;2022-08-23T22:49:42;12.45;;;6.50;;
46561;SDS011;32289;42.688;23.330;2022-08-23T22:53:23;12.07;;;5.75;;